sensor_id;sensor_type;location;lat;lon;timestamp;temperature;humidity
39919;DHT22;25589;51.552;13.424;2022-12-29T00:02:11;9.90;99.90
39919;DHT22;25589;51.552;13.424;2022-12-29T00:04:37;9.70;99.90
39919;DHT22;25589;51.552;13.424;2022-12-29T00:07:02;9.80;99.90
39919;DHT22;25589;51.552;13.424;2022-12-29T00:09:30;10.10;99.90
39919;DHT22;25589;51.552;13.424;2022-12-29T00:11:56;9.80;99.90
39919;DHT22;25589;51.552;13.424;2022-12-29T00:14:21;9.70;99.90
39919;DHT22;25589;51.552;13.424;2022-12-29T00:17:05;9.70;99.90
39919;DHT22;25589;51.552;13.424;2022-12-29T00:19:31;9.70;99.90
39919;DHT22;25589;51.552;13.424;2022-12-29T00:22:15;9.70;99.90
39919;DHT22;25589;51.552;13.424;2022-12-29T00:25:00;9.90;99.90
39919;DHT22;25589;51.552;13.424;2022-12-29T00:27:44;9.70;99.90
39919;DHT22;25589;51.552;13.424;2022-12-29T00:30:29;9.70;99.90
39919;DHT22;25589;51.552;13.424;2022-12-29T00:33:16;9.70;99.90
39919;DHT22;25589;51.552;13.424;2022-12-29T00:36:28;9.30;99.90
39919;DHT22;25589;51.552;13.424;2022-12-29T00:39:03;9.70;99.90
39919;DHT22;25589;51.552;13.424;2022-12-29T00:41:49;9.70;99.90
39919;DHT22;25589;51.552;13.424;2022-12-29T00:44:33;9.70;99.90
39919;DHT22;25589;51.552;13.424;2022-12-29T00:46:59;9.70;99.90
39919;DHT22;25589;51.552;13.424;2022-12-29T00:49:31;9.50;99.90
39919;DHT22;25589;51.552;13.424;2022-12-29T00:52:06;9.70;99.90
39919;DHT22;25589;51.552;13.424;2022-12-29T00:54:34;9.60;99.90
39919;DHT22;25589;51.552;13.424;2022-12-29T00:57:00;9.70;99.90
39919;DHT22;25589;51.552;13.424;2022-12-29T00:59:26;9.70;99.90
39919;DHT22;25589;51.552;13.424;2022-12-29T01:01:52;9.70;99.90
39919;DHT22;25589;51.552;13.424;2022-12-29T01:04:20;9.20;99.90
39919;DHT22;25589;51.552;13.424;2022-12-29T01:06:46;10.10;99.90
39919;DHT22;25589;51.552;13.424;2022-12-29T01:09:15;9.70;99.90
39919;DHT22;25589;51.552;13.424;2022-12-29T01:12:00;9.70;99.90
39919;DHT22;25589;51.552;13.424;2022-12-29T01:14:26;9.40;99.90
39919;DHT22;25589;51.552;13.424;2022-12-29T01:16:53;9.70;99.90
39919;DHT22;25589;51.552;13.424;2022-12-29T01:19:19;9.70;99.90
39919;DHT22;25589;51.552;13.424;2022-12-29T01:21:46;10.20;99.90
39919;DHT22;25589;51.552;13.424;2022-12-29T01:24:12;9.70;99.90
39919;DHT22;25589;51.552;13.424;2022-12-29T01:26:38;9.80;99.90
39919;DHT22;25589;51.552;13.424;2022-12-29T01:29:04;10.20;99.90
39919;DHT22;25589;51.552;13.424;2022-12-29T01:31:29;9.80;99.90
39919;DHT22;25589;51.552;13.424;2022-12-29T01:33:55;9.80;99.90
39919;DHT22;25589;51.552;13.424;2022-12-29T01:36:20;9.80;99.90
39919;DHT22;25589;51.552;13.424;2022-12-29T01:38:46;9.90;99.90
39919;DHT22;25589;51.552;13.424;2022-12-29T01:41:13;9.90;99.90
39919;DHT22;25589;51.552;13.424;2022-12-29T01:51:31;10.10;99.90
39919;DHT22;25589;51.552;13.424;2022-12-29T01:54:00;10.50;99.90
39919;DHT22;25589;51.552;13.424;2022-12-29T01:56:27;10.20;99.90
39919;DHT22;25589;51.552;13.424;2022-12-29T01:59:01;10.20;99.90
39919;DHT22;25589;51.552;13.424;2022-12-29T02:01:27;10.20;99.90
39919;DHT22;25589;51.552;13.424;2022-12-29T02:03:53;10.20;99.90
39919;DHT22;25589;51.552;13.424;2022-12-29T02:06:24;10.20;99.90
39919;DHT22;25589;51.552;13.424;2022-12-29T02:08:52;10.30;99.90
39919;DHT22;25589;51.552;13.424;2022-12-29T02:11:23;10.30;99.90
39919;DHT22;25589;51.552;13.424;2022-12-29T02:13:51;10.30;99.90
39919;DHT22;25589;51.552;13.424;2022-12-29T02:19:14;10.70;99.90
39919;DHT22;25589;51.552;13.424;2022-12-29T02:32:36;10.50;99.90
39919;DHT22;25589;51.552;13.424;2022-12-29T02:35:25;10.50;99.90
39919;DHT22;25589;51.552;13.424;2022-12-29T02:43:54;10.70;99.90
39919;DHT22;25589;51.552;13.424;2022-12-29T02:46:35;10.70;99.90
39919;DHT22;25589;51.552;13.424;2022-12-29T02:49:04;10.70;99.90
39919;DHT22;25589;51.552;13.424;2022-12-29T02:51:46;10.50;99.90
39919;DHT22;25589;51.552;13.424;2022-12-29T02:54:18;10.70;99.90
39919;DHT22;25589;51.552;13.424;2022-12-29T02:57:03;10.80;99.90
39919;DHT22;25589;51.552;13.424;2022-12-29T02:59:29;11.60;99.90
39919;DHT22;25589;51.552;13.424;2022-12-29T03:02:19;10.60;99.90
39919;DHT22;25589;51.552;13.424;2022-12-29T03:08:02;10.90;99.90
39919;DHT22;25589;51.552;13.424;2022-12-29T03:13:13;11.10;99.90
39919;DHT22;25589;51.552;13.424;2022-12-29T03:16:12;11.50;99.90
39919;DHT22;25589;51.552;13.424;2022-12-29T03:19:31;11.00;99.90
39919;DHT22;25589;51.552;13.424;2022-12-29T03:22:01;10.80;99.90
39919;DHT22;25589;51.552;13.424;2022-12-29T03:25:03;11.00;99.90
39919;DHT22;25589;51.552;13.424;2022-12-29T03:27:34;11.50;99.90
39919;DHT22;25589;51.552;13.424;2022-12-29T03:30:03;11.00;99.90
39919;DHT22;25589;51.552;13.424;2022-12-29T03:32:45;11.30;99.90
39919;DHT22;25589;51.552;13.424;2022-12-29T03:35:13;11.30;99.90
39919;DHT22;25589;51.552;13.424;2022-12-29T03:40:10;10.90;99.90
39919;DHT22;25589;51.552;13.424;2022-12-29T03:42:37;11.00;99.90
39919;DHT22;25589;51.552;13.424;2022-12-29T03:45:06;10.90;99.90
39919;DHT22;25589;51.552;13.424;2022-12-29T03:47:32;10.90;99.90
39919;DHT22;25589;51.552;13.424;2022-12-29T03:49:57;10.90;99.90
39919;DHT22;25589;51.552;13.424;2022-12-29T03:52:23;10.90;99.90
39919;DHT22;25589;51.552;13.424;2022-12-29T03:54:51;10.90;99.90
39919;DHT22;25589;51.552;13.424;2022-12-29T03:57:17;10.90;99.90
39919;DHT22;25589;51.552;13.424;2022-12-29T04:00:03;10.90;99.90
39919;DHT22;25589;51.552;13.424;2022-12-29T04:02:40;10.90;99.90
39919;DHT22;25589;51.552;13.424;2022-12-29T04:05:07;10.90;99.90
39919;DHT22;25589;51.552;13.424;2022-12-29T04:07:33;10.50;99.90
39919;DHT22;25589;51.552;13.424;2022-12-29T04:10:01;11.00;99.90
39919;DHT22;25589;51.552;13.424;2022-12-29T04:12:27;11.00;99.90
39919;DHT22;25589;51.552;13.424;2022-12-29T04:14:53;11.00;99.90
39919;DHT22;25589;51.552;13.424;2022-12-29T04:17:19;10.60;99.90
39919;DHT22;25589;51.552;13.424;2022-12-29T04:19:48;11.60;99.90
39919;DHT22;25589;51.552;13.424;2022-12-29T04:22:14;11.10;99.90
39919;DHT22;25589;51.552;13.424;2022-12-29T04:24:39;11.60;99.90
39919;DHT22;25589;51.552;13.424;2022-12-29T04:27:05;11.10;99.90
39919;DHT22;25589;51.552;13.424;2022-12-29T04:29:59;11.20;99.90
39919;DHT22;25589;51.552;13.424;2022-12-29T04:32:34;11.20;99.90
39919;DHT22;25589;51.552;13.424;2022-12-29T04:35:00;11.20;99.90
39919;DHT22;25589;51.552;13.424;2022-12-29T04:37:26;11.90;99.90
39919;DHT22;25589;51.552;13.424;2022-12-29T04:39:52;11.20;99.90
39919;DHT22;25589;51.552;13.424;2022-12-29T04:42:17;11.20;99.90
39919;DHT22;25589;51.552;13.424;2022-12-29T04:44:43;10.90;99.90
39919;DHT22;25589;51.552;13.424;2022-12-29T04:47:12;11.30;99.90
39919;DHT22;25589;51.552;13.424;2022-12-29T04:49:46;11.30;99.90
39919;DHT22;25589;51.552;13.424;2022-12-29T04:52:27;11.30;99.90
39919;DHT22;25589;51.552;13.424;2022-12-29T04:54:54;11.30;99.90
39919;DHT22;25589;51.552;13.424;2022-12-29T04:57:20;11.30;99.90
39919;DHT22;25589;51.552;13.424;2022-12-29T04:59:50;11.40;99.90
39919;DHT22;25589;51.552;13.424;2022-12-29T05:02:16;11.40;99.90
39919;DHT22;25589;51.552;13.424;2022-12-29T05:04:44;11.40;99.90
39919;DHT22;25589;51.552;13.424;2022-12-29T05:07:10;11.40;99.90
39919;DHT22;25589;51.552;13.424;2022-12-29T05:09:36;11.40;99.90
39919;DHT22;25589;51.552;13.424;2022-12-29T05:12:02;11.50;99.90
39919;DHT22;25589;51.552;13.424;2022-12-29T05:14:29;11.50;99.90
39919;DHT22;25589;51.552;13.424;2022-12-29T05:19:21;11.50;99.90
39919;DHT22;25589;51.552;13.424;2022-12-29T05:21:47;11.50;99.90
39919;DHT22;25589;51.552;13.424;2022-12-29T05:24:12;12.00;99.90
39919;DHT22;25589;51.552;13.424;2022-12-29T05:26:38;11.50;99.90
39919;DHT22;25589;51.552;13.424;2022-12-29T05:29:22;11.50;99.90
39919;DHT22;25589;51.552;13.424;2022-12-29T05:31:48;11.50;99.90
39919;DHT22;25589;51.552;13.424;2022-12-29T05:34:14;11.50;99.90
39919;DHT22;25589;51.552;13.424;2022-12-29T05:36:40;11.80;99.90
39919;DHT22;25589;51.552;13.424;2022-12-29T05:39:09;11.40;99.90
39919;DHT22;25589;51.552;13.424;2022-12-29T05:41:35;11.40;99.90
39919;DHT22;25589;51.552;13.424;2022-12-29T05:44:21;11.40;99.90
39919;DHT22;25589;51.552;13.424;2022-12-29T05:47:03;11.40;99.90
39919;DHT22;25589;51.552;13.424;2022-12-29T05:49:39;11.40;99.90
39919;DHT22;25589;51.552;13.424;2022-12-29T05:52:17;11.30;99.90
39919;DHT22;25589;51.552;13.424;2022-12-29T05:54:43;11.40;99.90
39919;DHT22;25589;51.552;13.424;2022-12-29T05:57:12;11.30;99.90
39919;DHT22;25589;51.552;13.424;2022-12-29T05:59:39;11.20;99.90
39919;DHT22;25589;51.552;13.424;2022-12-29T06:02:05;11.40;99.90
39919;DHT22;25589;51.552;13.424;2022-12-29T06:04:30;11.30;99.90
39919;DHT22;25589;51.552;13.424;2022-12-29T06:06:56;11.30;99.90
39919;DHT22;25589;51.552;13.424;2022-12-29T06:09:32;11.30;99.90
39919;DHT22;25589;51.552;13.424;2022-12-29T06:11:58;11.20;99.90
39919;DHT22;25589;51.552;13.424;2022-12-29T06:14:25;11.30;99.90
39919;DHT22;25589;51.552;13.424;2022-12-29T06:16:51;11.20;99.90
39919;DHT22;25589;51.552;13.424;2022-12-29T06:19:16;10.90;99.90
39919;DHT22;25589;51.552;13.424;2022-12-29T06:21:42;11.20;99.90
39919;DHT22;25589;51.552;13.424;2022-12-29T06:24:08;11.20;99.90
39919;DHT22;25589;51.552;13.424;2022-12-29T06:26:36;11.20;99.90
39919;DHT22;25589;51.552;13.424;2022-12-29T06:29:02;10.70;99.90
39919;DHT22;25589;51.552;13.424;2022-12-29T06:31:28;11.30;99.90
39919;DHT22;25589;51.552;13.424;2022-12-29T06:33:54;11.20;99.90
39919;DHT22;25589;51.552;13.424;2022-12-29T06:36:20;11.20;99.90
39919;DHT22;25589;51.552;13.424;2022-12-29T06:38:45;11.50;99.90
39919;DHT22;25589;51.552;13.424;2022-12-29T06:43:56;11.20;99.90
39919;DHT22;25589;51.552;13.424;2022-12-29T06:46:40;11.30;99.90
39919;DHT22;25589;51.552;13.424;2022-12-29T06:49:05;11.20;99.90
39919;DHT22;25589;51.552;13.424;2022-12-29T06:51:31;11.20;99.90
39919;DHT22;25589;51.552;13.424;2022-12-29T06:53:56;11.20;99.90
39919;DHT22;25589;51.552;13.424;2022-12-29T06:56:22;11.20;99.90
39919;DHT22;25589;51.552;13.424;2022-12-29T06:58:47;11.30;99.90
39919;DHT22;25589;51.552;13.424;2022-12-29T07:01:13;11.20;99.90
39919;DHT22;25589;51.552;13.424;2022-12-29T07:03:41;11.30;99.90
39919;DHT22;25589;51.552;13.424;2022-12-29T07:06:07;11.30;99.90
39919;DHT22;25589;51.552;13.424;2022-12-29T07:08:33;11.30;99.90
39919;DHT22;25589;51.552;13.424;2022-12-29T07:10:58;11.80;99.90
39919;DHT22;25589;51.552;13.424;2022-12-29T07:13:24;11.30;99.90
39919;DHT22;25589;51.552;13.424;2022-12-29T07:15:49;11.20;99.90
39919;DHT22;25589;51.552;13.424;2022-12-29T07:18:15;11.40;99.90
39919;DHT22;25589;51.552;13.424;2022-12-29T07:20:40;11.30;99.90
39919;DHT22;25589;51.552;13.424;2022-12-29T07:23:06;11.30;99.90
39919;DHT22;25589;51.552;13.424;2022-12-29T07:25:31;11.50;99.90
39919;DHT22;25589;51.552;13.424;2022-12-29T07:27:57;11.40;99.90
39919;DHT22;25589;51.552;13.424;2022-12-29T07:30:23;11.70;99.90
39919;DHT22;25589;51.552;13.424;2022-12-29T07:32:48;11.40;99.90
39919;DHT22;25589;51.552;13.424;2022-12-29T07:35:14;11.40;99.90
39919;DHT22;25589;51.552;13.424;2022-12-29T07:37:40;11.40;99.90
39919;DHT22;25589;51.552;13.424;2022-12-29T07:40:06;11.40;99.90
39919;DHT22;25589;51.552;13.424;2022-12-29T07:42:32;11.40;99.90
39919;DHT22;25589;51.552;13.424;2022-12-29T07:44:58;10.70;99.90
39919;DHT22;25589;51.552;13.424;2022-12-29T07:47:34;11.40;99.90
39919;DHT22;25589;51.552;13.424;2022-12-29T07:49:59;11.40;99.90
39919;DHT22;25589;51.552;13.424;2022-12-29T07:52:25;11.60;99.90
39919;DHT22;25589;51.552;13.424;2022-12-29T07:54:50;11.40;99.90
39919;DHT22;25589;51.552;13.424;2022-12-29T07:57:16;11.50;99.90
39919;DHT22;25589;51.552;13.424;2022-12-29T07:59:43;11.50;99.90
39919;DHT22;25589;51.552;13.424;2022-12-29T08:02:11;11.40;99.90
39919;DHT22;25589;51.552;13.424;2022-12-29T08:04:37;11.20;99.90
39919;DHT22;25589;51.552;13.424;2022-12-29T08:07:03;11.50;99.90
39919;DHT22;25589;51.552;13.424;2022-12-29T08:09:28;11.70;99.90
39919;DHT22;25589;51.552;13.424;2022-12-29T08:11:54;11.50;99.90
39919;DHT22;25589;51.552;13.424;2022-12-29T08:14:20;11.60;99.90
39919;DHT22;25589;51.552;13.424;2022-12-29T08:16:47;11.60;99.90
39919;DHT22;25589;51.552;13.424;2022-12-29T08:19:13;11.90;99.90
39919;DHT22;25589;51.552;13.424;2022-12-29T08:21:39;11.50;99.90
39919;DHT22;25589;51.552;13.424;2022-12-29T08:24:06;11.80;99.90
39919;DHT22;25589;51.552;13.424;2022-12-29T08:26:32;11.50;99.90
39919;DHT22;25589;51.552;13.424;2022-12-29T08:28:58;12.00;99.90
39919;DHT22;25589;51.552;13.424;2022-12-29T08:31:23;11.80;99.90
39919;DHT22;25589;51.552;13.424;2022-12-29T08:33:49;12.20;99.90
39919;DHT22;25589;51.552;13.424;2022-12-29T08:38:41;11.80;99.90
39919;DHT22;25589;51.552;13.424;2022-12-29T08:41:07;11.80;99.90
39919;DHT22;25589;51.552;13.424;2022-12-29T08:43:32;11.60;99.90
39919;DHT22;25589;51.552;13.424;2022-12-29T08:45:58;11.90;99.90
39919;DHT22;25589;51.552;13.424;2022-12-29T08:48:24;11.80;99.90
39919;DHT22;25589;51.552;13.424;2022-12-29T08:50:50;11.70;99.90
39919;DHT22;25589;51.552;13.424;2022-12-29T08:53:16;12.00;99.90
39919;DHT22;25589;51.552;13.424;2022-12-29T08:55:54;11.80;99.90
39919;DHT22;25589;51.552;13.424;2022-12-29T08:58:20;12.20;99.90
39919;DHT22;25589;51.552;13.424;2022-12-29T09:00:57;12.40;99.90
39919;DHT22;25589;51.552;13.424;2022-12-29T09:03:24;12.50;99.90
39919;DHT22;25589;51.552;13.424;2022-12-29T09:05:54;12.10;99.90
39919;DHT22;25589;51.552;13.424;2022-12-29T09:08:20;12.50;99.90
39919;DHT22;25589;51.552;13.424;2022-12-29T09:10:46;12.60;99.90
39919;DHT22;25589;51.552;13.424;2022-12-29T09:13:12;12.60;99.90
39919;DHT22;25589;51.552;13.424;2022-12-29T09:18:06;12.50;99.90
39919;DHT22;25589;51.552;13.424;2022-12-29T09:20:31;12.50;99.90
39919;DHT22;25589;51.552;13.424;2022-12-29T09:22:57;12.40;99.90
39919;DHT22;25589;51.552;13.424;2022-12-29T09:25:22;12.50;99.90
39919;DHT22;25589;51.552;13.424;2022-12-29T09:27:50;12.40;99.90
39919;DHT22;25589;51.552;13.424;2022-12-29T09:30:18;12.40;99.90
39919;DHT22;25589;51.552;13.424;2022-12-29T09:32:44;12.40;99.90
39919;DHT22;25589;51.552;13.424;2022-12-29T09:35:10;12.40;99.90
39919;DHT22;25589;51.552;13.424;2022-12-29T09:37:36;12.40;99.90
39919;DHT22;25589;51.552;13.424;2022-12-29T09:40:02;12.40;99.90
39919;DHT22;25589;51.552;13.424;2022-12-29T09:42:38;12.40;99.90
39919;DHT22;25589;51.552;13.424;2022-12-29T09:45:17;12.50;99.90
39919;DHT22;25589;51.552;13.424;2022-12-29T09:47:45;12.50;99.90
39919;DHT22;25589;51.552;13.424;2022-12-29T09:50:22;12.60;99.90
39919;DHT22;25589;51.552;13.424;2022-12-29T09:53:02;12.50;99.90
39919;DHT22;25589;51.552;13.424;2022-12-29T09:55:39;12.80;99.90
39919;DHT22;25589;51.552;13.424;2022-12-29T09:58:23;12.70;99.90
39919;DHT22;25589;51.552;13.424;2022-12-29T10:00:58;12.80;99.90
39919;DHT22;25589;51.552;13.424;2022-12-29T10:03:50;12.90;99.90
39919;DHT22;25589;51.552;13.424;2022-12-29T10:06:26;12.90;99.90
39919;DHT22;25589;51.552;13.424;2022-12-29T10:12:03;12.90;99.90
39919;DHT22;25589;51.552;13.424;2022-12-29T10:20:32;13.60;99.90
39919;DHT22;25589;51.552;13.424;2022-12-29T10:25:49;12.70;99.90
39919;DHT22;25589;51.552;13.424;2022-12-29T10:28:22;13.10;99.90
39919;DHT22;25589;51.552;13.424;2022-12-29T10:30:49;13.30;99.90
39919;DHT22;25589;51.552;13.424;2022-12-29T10:33:32;13.40;99.90
39919;DHT22;25589;51.552;13.424;2022-12-29T10:36:09;13.50;99.90
39919;DHT22;25589;51.552;13.424;2022-12-29T10:38:45;13.60;99.90
39919;DHT22;25589;51.552;13.424;2022-12-29T10:41:26;13.20;99.90
39919;DHT22;25589;51.552;13.424;2022-12-29T10:43:54;13.60;99.90
39919;DHT22;25589;51.552;13.424;2022-12-29T10:46:25;13.60;99.90
39919;DHT22;25589;51.552;13.424;2022-12-29T10:48:52;13.60;99.90
39919;DHT22;25589;51.552;13.424;2022-12-29T10:51:37;13.70;99.90
39919;DHT22;25589;51.552;13.424;2022-12-29T10:54:32;13.40;99.90
39919;DHT22;25589;51.552;13.424;2022-12-29T10:57:10;13.30;99.90
39919;DHT22;25589;51.552;13.424;2022-12-29T10:59:37;13.70;99.90
39919;DHT22;25589;51.552;13.424;2022-12-29T11:04:57;13.30;99.90
39919;DHT22;25589;51.552;13.424;2022-12-29T11:07:27;13.60;99.90
39919;DHT22;25589;51.552;13.424;2022-12-29T11:09:53;13.20;99.90
39919;DHT22;25589;51.552;13.424;2022-12-29T11:12:22;13.20;99.90
39919;DHT22;25589;51.552;13.424;2022-12-29T11:15:21;13.30;99.90
39919;DHT22;25589;51.552;13.424;2022-12-29T11:17:56;13.20;99.90
39919;DHT22;25589;51.552;13.424;2022-12-29T11:20:37;13.20;99.90
39919;DHT22;25589;51.552;13.424;2022-12-29T11:23:05;13.30;99.90
39919;DHT22;25589;51.552;13.424;2022-12-29T11:25:45;13.30;99.90
39919;DHT22;25589;51.552;13.424;2022-12-29T11:28:15;13.40;99.90
39919;DHT22;25589;51.552;13.424;2022-12-29T11:30:41;13.30;99.90
39919;DHT22;25589;51.552;13.424;2022-12-29T11:33:08;13.30;99.90
39919;DHT22;25589;51.552;13.424;2022-12-29T11:35:35;13.30;99.90
39919;DHT22;25589;51.552;13.424;2022-12-29T11:38:01;13.40;99.90
39919;DHT22;25589;51.552;13.424;2022-12-29T11:40:27;13.50;99.90
39919;DHT22;25589;51.552;13.424;2022-12-29T11:42:56;13.60;99.90
39919;DHT22;25589;51.552;13.424;2022-12-29T11:45:34;13.70;99.90
39919;DHT22;25589;51.552;13.424;2022-12-29T11:48:06;13.70;99.90
39919;DHT22;25589;51.552;13.424;2022-12-29T11:50:35;13.70;99.90
39919;DHT22;25589;51.552;13.424;2022-12-29T11:53:26;13.70;99.90
39919;DHT22;25589;51.552;13.424;2022-12-29T11:55:58;13.80;99.90
39919;DHT22;25589;51.552;13.424;2022-12-29T11:58:35;14.00;99.90
39919;DHT22;25589;51.552;13.424;2022-12-29T12:01:18;14.10;99.90
39919;DHT22;25589;51.552;13.424;2022-12-29T12:03:52;14.10;99.90
39919;DHT22;25589;51.552;13.424;2022-12-29T12:06:20;14.10;99.90
39919;DHT22;25589;51.552;13.424;2022-12-29T12:08:55;14.20;99.90
39919;DHT22;25589;51.552;13.424;2022-12-29T12:11:28;14.20;99.90
39919;DHT22;25589;51.552;13.424;2022-12-29T12:17:10;14.50;99.90
39919;DHT22;25589;51.552;13.424;2022-12-29T12:19:48;14.70;99.90
39919;DHT22;25589;51.552;13.424;2022-12-29T12:22:51;14.40;99.90
39919;DHT22;25589;51.552;13.424;2022-12-29T12:25:23;14.40;99.90
39919;DHT22;25589;51.552;13.424;2022-12-29T12:27:56;14.30;99.90
39919;DHT22;25589;51.552;13.424;2022-12-29T12:30:24;14.30;99.90
39919;DHT22;25589;51.552;13.424;2022-12-29T12:33:05;14.30;99.90
39919;DHT22;25589;51.552;13.424;2022-12-29T12:35:50;14.10;99.90
39919;DHT22;25589;51.552;13.424;2022-12-29T12:38:40;14.30;99.90
39919;DHT22;25589;51.552;13.424;2022-12-29T12:41:17;14.00;99.90
39919;DHT22;25589;51.552;13.424;2022-12-29T12:44:02;14.10;99.90
39919;DHT22;25589;51.552;13.424;2022-12-29T12:50:10;13.90;99.90
39919;DHT22;25589;51.552;13.424;2022-12-29T12:52:47;13.80;99.90
39919;DHT22;25589;51.552;13.424;2022-12-29T12:58:11;13.80;99.90
39919;DHT22;25589;51.552;13.424;2022-12-29T13:01:01;13.80;99.90
39919;DHT22;25589;51.552;13.424;2022-12-29T13:03:46;13.80;99.90
39919;DHT22;25589;51.552;13.424;2022-12-29T13:06:40;13.60;99.90
39919;DHT22;25589;51.552;13.424;2022-12-29T13:09:25;13.70;99.90
39919;DHT22;25589;51.552;13.424;2022-12-29T13:14:57;13.70;99.90
39919;DHT22;25589;51.552;13.424;2022-12-29T13:17:45;13.60;99.90
39919;DHT22;25589;51.552;13.424;2022-12-29T13:20:33;13.70;99.90
39919;DHT22;25589;51.552;13.424;2022-12-29T13:23:20;13.60;99.90
39919;DHT22;25589;51.552;13.424;2022-12-29T13:28:25;13.60;99.90
39919;DHT22;25589;51.552;13.424;2022-12-29T13:31:01;13.50;99.90
39919;DHT22;25589;51.552;13.424;2022-12-29T13:36:20;13.50;99.90
39919;DHT22;25589;51.552;13.424;2022-12-29T13:38:50;13.50;99.90
39919;DHT22;25589;51.552;13.424;2022-12-29T13:41:25;13.50;99.90
39919;DHT22;25589;51.552;13.424;2022-12-29T13:43:54;13.30;99.90
39919;DHT22;25589;51.552;13.424;2022-12-29T13:46:24;13.40;99.90
39919;DHT22;25589;51.552;13.424;2022-12-29T13:49:18;13.10;99.90
39919;DHT22;25589;51.552;13.424;2022-12-29T13:51:53;13.40;99.90
39919;DHT22;25589;51.552;13.424;2022-12-29T13:54:43;13.40;99.90
39919;DHT22;25589;51.552;13.424;2022-12-29T14:00:00;13.30;99.90
39919;DHT22;25589;51.552;13.424;2022-12-29T14:07:44;14.00;99.90
39919;DHT22;25589;51.552;13.424;2022-12-29T14:10:33;13.30;99.90
39919;DHT22;25589;51.552;13.424;2022-12-29T14:13:09;13.30;99.90
39919;DHT22;25589;51.552;13.424;2022-12-29T14:15:38;13.30;99.90
39919;DHT22;25589;51.552;13.424;2022-12-29T14:18:42;13.30;99.90
39919;DHT22;25589;51.552;13.424;2022-12-29T14:21:21;13.30;99.90
39919;DHT22;25589;51.552;13.424;2022-12-29T14:23:49;13.20;99.90
39919;DHT22;25589;51.552;13.424;2022-12-29T14:28:43;13.20;99.90
39919;DHT22;25589;51.552;13.424;2022-12-29T14:36:52;13.20;99.90
39919;DHT22;25589;51.552;13.424;2022-12-29T14:39:42;13.20;99.90
39919;DHT22;25589;51.552;13.424;2022-12-29T14:45:40;13.20;99.90
39919;DHT22;25589;51.552;13.424;2022-12-29T14:53:00;13.10;99.90
39919;DHT22;25589;51.552;13.424;2022-12-29T14:55:37;13.10;99.90
39919;DHT22;25589;51.552;13.424;2022-12-29T14:58:18;13.20;99.90
39919;DHT22;25589;51.552;13.424;2022-12-29T15:00:46;13.00;99.90
39919;DHT22;25589;51.552;13.424;2022-12-29T15:06:08;13.60;99.90
39919;DHT22;25589;51.552;13.424;2022-12-29T15:09:01;13.00;99.90
39919;DHT22;25589;51.552;13.424;2022-12-29T15:14:03;13.40;99.90
39919;DHT22;25589;51.552;13.424;2022-12-29T15:16:33;13.20;99.90
39919;DHT22;25589;51.552;13.424;2022-12-29T15:19:01;13.00;99.90
39919;DHT22;25589;51.552;13.424;2022-12-29T15:21:34;13.00;99.90
39919;DHT22;25589;51.552;13.424;2022-12-29T15:24:00;13.00;99.90
39919;DHT22;25589;51.552;13.424;2022-12-29T15:34:45;13.00;99.90
39919;DHT22;25589;51.552;13.424;2022-12-29T15:37:18;13.00;99.90
39919;DHT22;25589;51.552;13.424;2022-12-29T15:39:44;13.00;99.90
39919;DHT22;25589;51.552;13.424;2022-12-29T15:42:31;13.00;99.90
39919;DHT22;25589;51.552;13.424;2022-12-29T15:45:03;12.60;99.90
39919;DHT22;25589;51.552;13.424;2022-12-29T15:47:30;13.10;99.90
39919;DHT22;25589;51.552;13.424;2022-12-29T15:52:27;13.00;99.90
39919;DHT22;25589;51.552;13.424;2022-12-29T15:54:54;13.00;99.90
39919;DHT22;25589;51.552;13.424;2022-12-29T15:57:24;12.90;99.90
39919;DHT22;25589;51.552;13.424;2022-12-29T15:59:51;13.00;99.90
39919;DHT22;25589;51.552;13.424;2022-12-29T16:02:17;12.90;99.90
39919;DHT22;25589;51.552;13.424;2022-12-29T16:04:43;13.00;99.90
39919;DHT22;25589;51.552;13.424;2022-12-29T16:07:32;13.00;99.90
39919;DHT22;25589;51.552;13.424;2022-12-29T16:10:02;12.90;99.90
39919;DHT22;25589;51.552;13.424;2022-12-29T16:12:36;12.70;99.90
39919;DHT22;25589;51.552;13.424;2022-12-29T16:15:05;12.90;99.90
39919;DHT22;25589;51.552;13.424;2022-12-29T16:17:36;12.90;99.90
39919;DHT22;25589;51.552;13.424;2022-12-29T16:20:18;12.90;99.90
39919;DHT22;25589;51.552;13.424;2022-12-29T16:22:50;12.80;99.90
39919;DHT22;25589;51.552;13.424;2022-12-29T16:25:33;12.70;99.90
39919;DHT22;25589;51.552;13.424;2022-12-29T16:28:02;12.70;99.90
39919;DHT22;25589;51.552;13.424;2022-12-29T16:30:32;12.70;99.90
39919;DHT22;25589;51.552;13.424;2022-12-29T16:33:03;12.70;99.90
39919;DHT22;25589;51.552;13.424;2022-12-29T16:35:45;12.70;99.90
39919;DHT22;25589;51.552;13.424;2022-12-29T16:38:16;12.60;99.90
39919;DHT22;25589;51.552;13.424;2022-12-29T16:40:59;12.60;99.90
39919;DHT22;25589;51.552;13.424;2022-12-29T16:43:29;12.60;99.90
39919;DHT22;25589;51.552;13.424;2022-12-29T16:48:30;12.50;99.90
39919;DHT22;25589;51.552;13.424;2022-12-29T16:51:18;12.40;99.90
39919;DHT22;25589;51.552;13.424;2022-12-29T16:53:52;12.40;99.90
39919;DHT22;25589;51.552;13.424;2022-12-29T16:56:20;12.30;99.90
39919;DHT22;25589;51.552;13.424;2022-12-29T16:58:52;12.60;99.90
39919;DHT22;25589;51.552;13.424;2022-12-29T17:01:19;12.20;99.90
39919;DHT22;25589;51.552;13.424;2022-12-29T17:03:50;12.20;99.90
39919;DHT22;25589;51.552;13.424;2022-12-29T17:06:21;12.10;99.90
39919;DHT22;25589;51.552;13.424;2022-12-29T17:08:48;12.10;99.90
39919;DHT22;25589;51.552;13.424;2022-12-29T17:11:34;11.80;99.90
39919;DHT22;25589;51.552;13.424;2022-12-29T17:16:51;11.90;99.90
39919;DHT22;25589;51.552;13.424;2022-12-29T17:19:19;11.80;99.90
39919;DHT22;25589;51.552;13.424;2022-12-29T17:21:46;11.70;99.90
39919;DHT22;25589;51.552;13.424;2022-12-29T17:24:19;11.70;99.90
39919;DHT22;25589;51.552;13.424;2022-12-29T17:26:46;11.70;99.90
39919;DHT22;25589;51.552;13.424;2022-12-29T17:29:34;12.10;99.90
39919;DHT22;25589;51.552;13.424;2022-12-29T17:32:02;11.60;99.90
39919;DHT22;25589;51.552;13.424;2022-12-29T17:34:28;11.50;99.90
39919;DHT22;25589;51.552;13.424;2022-12-29T17:36:54;11.60;99.90
39919;DHT22;25589;51.552;13.424;2022-12-29T17:39:20;11.60;99.90
39919;DHT22;25589;51.552;13.424;2022-12-29T17:41:45;11.30;99.90
39919;DHT22;25589;51.552;13.424;2022-12-29T17:44:16;11.30;99.90
39919;DHT22;25589;51.552;13.424;2022-12-29T17:46:43;11.30;99.90
39919;DHT22;25589;51.552;13.424;2022-12-29T17:49:18;11.30;99.90
39919;DHT22;25589;51.552;13.424;2022-12-29T17:51:45;11.40;99.90